createdAt,value
2019-01-29T00:01:45.953Z,97651.98
2019-01-29T00:04:21.410Z,97653.97
2019-01-29T00:06:55.617Z,97653.05
2019-01-29T00:09:31.273Z,97650.01
2019-01-29T00:12:05.561Z,97657.42
2019-01-29T00:14:40.439Z,97653.63
2019-01-29T00:17:15.485Z,97663.12
2019-01-29T00:19:50.214Z,97664.29
2019-01-29T00:22:24.420Z,97666.75
2019-01-29T00:25:00.363Z,97666.75
2019-01-29T00:27:35.496Z,97667.63
2019-01-29T00:30:10.973Z,97674.81
2019-01-29T00:32:46.161Z,97675.45
2019-01-29T00:35:23.070Z,97671.54
2019-01-29T00:37:58.533Z,97677.31
2019-01-29T00:40:33.974Z,97678.16
2019-01-29T00:43:10.686Z,97683.42
2019-01-29T00:45:45.471Z,97681.52
2019-01-29T00:48:21.067Z,97683.28
2019-01-29T00:50:55.859Z,97672.89
2019-01-29T00:53:30.742Z,97679.33
2019-01-29T00:56:05.156Z,97683.31
2019-01-29T00:58:40.409Z,97684.22
2019-01-29T01:01:15.548Z,97686.27
2019-01-29T01:03:50.306Z,97682.23
2019-01-29T01:06:25.641Z,97685.53
2019-01-29T01:08:59.968Z,97686.38
2019-01-29T01:11:34.356Z,97689.29
2019-01-29T01:14:09.163Z,97685.59
2019-01-29T01:16:43.855Z,97691.36
2019-01-29T01:19:19.102Z,97686.06
2019-01-29T01:21:53.758Z,97684.50
2019-01-29T01:24:29.225Z,97678.39
2019-01-29T01:27:04.030Z,97689.55
2019-01-29T01:29:40.008Z,97695.23
2019-01-29T01:32:15.148Z,97691.11
2019-01-29T01:34:51.281Z,97689.37
2019-01-29T01:37:26.228Z,97694.06
2019-01-29T01:40:01.687Z,97693.80
2019-01-29T01:42:37.903Z,97692.45
2019-01-29T01:45:13.635Z,97690.48
2019-01-29T01:47:48.635Z,97690.48
2019-01-29T01:50:24.577Z,97688.89
2019-01-29T01:52:59.742Z,97691.05
2019-01-29T01:55:34.561Z,97693.84
2019-01-29T01:58:09.230Z,97698.20
2019-01-29T02:00:43.664Z,97698.80
2019-01-29T02:03:18.521Z,97705.47
2019-01-29T02:05:54.431Z,97705.38
2019-01-29T02:08:29.186Z,97706.92
2019-01-29T02:11:04.292Z,97709.72
2019-01-29T02:13:39.759Z,97718.78
2019-01-29T02:16:14.540Z,97720.44
2019-01-29T02:18:49.783Z,97721.97
2019-01-29T02:21:24.816Z,97720.07
2019-01-29T02:24:00.790Z,97722.30
2019-01-29T02:26:35.191Z,97726.42
2019-01-29T02:29:09.407Z,97717.00
2019-01-29T02:31:44.844Z,97724.25
2019-01-29T02:34:20.560Z,97725.09
2019-01-29T02:36:55.432Z,97728.15
2019-01-29T02:39:29.800Z,97728.82
2019-01-29T02:42:05.422Z,97735.59
2019-01-29T02:44:41.357Z,97732.08
2019-01-29T02:47:16.421Z,97738.45
2019-01-29T02:49:52.060Z,97734.40
2019-01-29T02:52:27.074Z,97742.41
2019-01-29T02:55:02.479Z,97740.16
2019-01-29T02:57:37.343Z,97740.64
2019-01-29T03:00:20.089Z,97741.06
2019-01-29T03:02:55.013Z,97751.13
2019-01-29T03:05:30.187Z,97748.05
2019-01-29T03:08:04.419Z,97749.61
2019-01-29T03:10:38.649Z,97747.95
2019-01-29T03:13:15.400Z,97749.42
2019-01-29T03:15:52.089Z,97752.33
2019-01-29T03:18:26.425Z,97752.40
2019-01-29T03:21:00.786Z,97752.72
2019-01-29T03:23:35.910Z,97762.55
2019-01-29T03:26:12.051Z,97762.88
2019-01-29T03:28:48.871Z,97763.61
2019-01-29T03:31:23.252Z,97761.14
2019-01-29T03:33:58.216Z,97770.09
2019-01-29T03:36:33.129Z,97775.55
2019-01-29T03:39:10.188Z,97783.44
2019-01-29T03:41:44.527Z,97783.95
2019-01-29T03:44:19.184Z,97787.80
2019-01-29T03:46:54.162Z,97793.13
2019-01-29T03:49:30.240Z,97793.30
2019-01-29T03:52:06.601Z,97797.22
2019-01-29T03:54:42.260Z,97800.08
2019-01-29T03:57:16.876Z,97803.30
2019-01-29T03:59:51.204Z,97803.53
2019-01-29T04:02:27.328Z,97804.12
2019-01-29T04:05:02.329Z,97810.74
2019-01-29T04:07:37.351Z,97817.36
2019-01-29T04:10:15.888Z,97821.33
2019-01-29T04:12:51.194Z,97825.58
2019-01-29T04:15:26.450Z,97823.94
2019-01-29T04:18:04.941Z,97833.53
2019-01-29T04:20:40.105Z,97831.96
2019-01-29T04:23:15.074Z,97833.04
2019-01-29T04:25:51.525Z,97838.49
2019-01-29T04:28:27.957Z,97844.44
2019-01-29T04:31:04.043Z,97841.39
2019-01-29T04:33:39.578Z,97842.45
2019-01-29T04:36:13.901Z,97848.49
2019-01-29T04:38:48.788Z,97851.39
2019-01-29T04:41:24.860Z,97850.09
2019-01-29T04:43:59.689Z,97849.84
2019-01-29T04:46:35.671Z,97853.06
2019-01-29T04:49:10.195Z,97854.55
2019-01-29T04:51:45.638Z,97858.52
2019-01-29T04:54:19.897Z,97861.51
2019-01-29T04:56:54.932Z,97869.86
2019-01-29T04:59:30.145Z,97865.98
2019-01-29T05:02:04.511Z,97865.56
2019-01-29T05:04:40.031Z,97868.88
2019-01-29T05:07:16.051Z,97875.70
2019-01-29T05:09:50.973Z,97882.98
2019-01-29T05:12:24.317Z,97885.95
2019-01-29T05:14:59.071Z,97891.33
2019-01-29T05:17:34.702Z,97893.58
2019-01-29T05:20:12.179Z,97901.64
2019-01-29T05:22:46.171Z,97901.34
2019-01-29T05:25:20.495Z,97900.67
2019-01-29T05:27:54.312Z,97905.96
2019-01-29T05:30:28.664Z,97907.13
2019-01-29T05:33:02.783Z,97911.17
2019-01-29T05:35:37.181Z,97915.34
2019-01-29T05:38:11.122Z,97918.66
2019-01-29T05:40:45.509Z,97919.06
2019-01-29T05:43:19.760Z,97924.61
2019-01-29T05:45:53.936Z,97924.92
2019-01-29T05:48:28.048Z,97929.78
2019-01-29T05:51:02.179Z,97931.38
2019-01-29T05:53:36.359Z,97939.03
2019-01-29T05:56:10.789Z,97944.33
2019-01-29T05:58:45.128Z,97951.59
2019-01-29T06:01:20.018Z,97951.17
2019-01-29T06:03:54.522Z,97954.23
2019-01-29T06:06:28.596Z,97960.94
2019-01-29T06:09:02.912Z,97966.41
2019-01-29T06:11:36.708Z,97967.97
2019-01-29T06:14:10.541Z,97977.23
2019-01-29T06:16:44.610Z,97980.78
2019-01-29T06:19:18.231Z,97986.31
2019-01-29T06:21:51.908Z,97986.09
2019-01-29T06:24:26.216Z,97995.20
2019-01-29T06:27:00.068Z,98001.29
2019-01-29T06:29:33.430Z,97997.42
2019-01-29T06:32:07.425Z,98005.28
2019-01-29T06:34:40.755Z,98007.17
2019-01-29T06:37:14.979Z,98011.47
2019-01-29T06:39:49.073Z,98008.34
2019-01-29T06:42:24.054Z,98023.62
2019-01-29T06:44:58.786Z,98032.95
2019-01-29T06:47:33.659Z,98029.15
2019-01-29T06:50:08.847Z,98034.20
2019-01-29T06:52:42.801Z,98040.98
2019-01-29T06:55:19.628Z,98046.02
2019-01-29T06:57:56.114Z,98047.41
2019-01-29T07:00:32.749Z,98056.32
2019-01-29T07:03:06.590Z,98061.11
2019-01-29T07:05:40.575Z,98066.82
2019-01-29T07:08:14.487Z,98070.36
2019-01-29T07:10:49.120Z,98073.75
2019-01-29T07:13:23.817Z,98076.73
2019-01-29T07:16:19.855Z,98077.80
2019-01-29T07:19:18.714Z,98078.78
2019-01-29T07:21:52.663Z,98094.50
2019-01-29T07:24:27.039Z,98094.50
2019-01-29T07:27:01.532Z,98096.88
2019-01-29T07:29:35.719Z,98106.39
2019-01-29T07:32:09.273Z,98108.87
2019-01-29T07:34:43.804Z,98113.66
2019-01-29T07:37:22.139Z,98118.53
2019-01-29T07:39:53.469Z,98120.42
2019-01-29T07:42:27.547Z,98121.26
2019-01-29T07:45:02.331Z,98133.30
2019-01-29T07:47:37.684Z,98142.56
2019-01-29T07:50:11.568Z,98144.54
2019-01-29T07:52:46.252Z,98150.18
2019-01-29T07:55:20.031Z,98152.06
2019-01-29T07:57:54.252Z,98153.91
2019-01-29T08:00:30.479Z,98160.44
2019-01-29T08:03:03.845Z,98149.28
2019-01-29T08:05:38.314Z,98153.83
2019-01-29T08:08:14.025Z,98161.77
2019-01-29T08:10:48.990Z,98161.00
2019-01-29T08:13:23.625Z,98167.88
2019-01-29T08:15:57.437Z,98169.02
2019-01-29T08:18:35.887Z,98182.92
2019-01-29T08:21:08.470Z,98178.45
2019-01-29T08:23:42.460Z,98181.09
2019-01-29T08:26:15.752Z,98182.52
2019-01-29T08:28:49.953Z,98200.45
2019-01-29T08:31:24.334Z,98187.30
2019-01-29T08:33:57.985Z,98194.56
2019-01-29T08:36:30.998Z,98197.30
2019-01-29T08:39:05.224Z,98207.47
2019-01-29T08:41:39.948Z,98205.48
2019-01-29T08:44:13.768Z,98210.78
2019-01-29T08:46:48.155Z,98217.31
2019-01-29T08:49:22.229Z,98216.56
2019-01-29T08:51:55.718Z,98225.34
2019-01-29T08:54:30.419Z,98225.08
2019-01-29T08:57:03.613Z,98229.88
2019-01-29T08:59:36.942Z,98230.55
2019-01-29T09:02:11.435Z,98242.52
2019-01-29T09:04:45.164Z,98238.31
2019-01-29T09:07:19.312Z,98237.83
2019-01-29T09:09:52.607Z,98245.44
2019-01-29T09:12:26.804Z,98248.59
2019-01-29T09:15:02.380Z,98253.70
2019-01-29T09:17:37.234Z,98260.50
2019-01-29T09:20:12.313Z,98279.08
2019-01-29T09:22:47.111Z,98263.30
2019-01-29T09:25:22.733Z,98271.73
2019-01-29T09:27:55.801Z,98261.80
2019-01-29T09:30:28.931Z,98272.73
2019-01-29T09:33:02.451Z,98279.16
2019-01-29T09:35:36.233Z,98293.16
2019-01-29T09:38:09.200Z,98283.90
2019-01-29T09:40:42.617Z,98288.26
2019-01-29T09:43:16.089Z,98292.42
2019-01-29T09:45:50.494Z,98298.20
2019-01-29T09:48:24.035Z,98285.44
2019-01-29T09:50:57.322Z,98286.27
2019-01-29T09:53:31.247Z,98302.23
2019-01-29T09:56:04.508Z,98290.73
2019-01-29T09:58:38.787Z,98312.63
2019-01-29T10:01:11.701Z,98303.45
2019-01-29T10:03:45.871Z,98325.36
2019-01-29T10:06:21.200Z,98309.33
2019-01-29T10:08:55.104Z,98303.28
2019-01-29T10:11:28.701Z,98303.19
2019-01-29T10:14:02.576Z,98310.55
2019-01-29T10:16:35.558Z,98299.88
2019-01-29T10:19:09.823Z,98309.22
2019-01-29T10:21:43.801Z,98303.09
2019-01-29T10:24:17.849Z,98315.42
2019-01-29T10:26:51.297Z,98343.55
2019-01-29T10:29:24.780Z,98331.06
2019-01-29T10:31:58.033Z,98321.72
2019-01-29T10:34:33.643Z,98319.47
2019-01-29T10:37:06.720Z,98335.86
2019-01-29T10:39:40.474Z,98345.01
2019-01-29T10:42:14.955Z,98345.47
2019-01-29T10:44:48.803Z,98336.59
2019-01-29T10:47:22.114Z,98340.45
2019-01-29T10:49:55.562Z,98342.34
2019-01-29T10:52:29.134Z,98331.94
2019-01-29T10:55:02.022Z,98349.80
2019-01-29T10:57:34.996Z,98342.19
2019-01-29T11:00:12.227Z,98348.45
2019-01-29T11:02:44.919Z,98334.74
2019-01-29T11:05:20.406Z,98356.63
2019-01-29T11:07:53.979Z,98353.56
2019-01-29T11:10:28.039Z,98346.94
2019-01-29T11:13:01.498Z,98347.69
2019-01-29T11:15:37.880Z,98344.17
2019-01-29T11:18:15.546Z,98349.48
2019-01-29T11:20:49.736Z,98342.14
2019-01-29T11:23:22.857Z,98349.09
2019-01-29T11:25:56.952Z,98360.59
2019-01-29T11:28:30.450Z,98351.84
2019-01-29T11:31:04.085Z,98361.49
2019-01-29T11:33:37.553Z,98365.31
2019-01-29T11:36:11.186Z,98370.34
2019-01-29T11:38:44.659Z,98368.73
2019-01-29T11:41:19.797Z,98388.09
2019-01-29T11:43:54.256Z,98393.19
2019-01-29T11:46:28.217Z,98380.47
2019-01-29T11:49:02.850Z,98381.56
2019-01-29T11:51:37.064Z,98385.11
2019-01-29T11:54:10.489Z,98386.99
2019-01-29T11:56:44.693Z,98386.50
2019-01-29T11:59:19.409Z,98392.41
2019-01-29T12:01:53.944Z,98383.96
2019-01-29T12:04:27.660Z,98388.16
2019-01-29T12:09:58.328Z,98400.05
2019-01-29T12:12:33.020Z,98398.13
2019-01-29T12:15:08.360Z,98397.28
2019-01-29T12:17:41.881Z,98398.44
2019-01-29T12:20:17.846Z,98393.48
2019-01-29T12:22:52.485Z,98405.00
2019-01-29T12:25:26.477Z,98411.38
2019-01-29T12:28:00.404Z,98411.34
2019-01-29T12:30:33.359Z,98411.76
2019-01-29T12:33:09.257Z,98413.91
2019-01-29T12:35:42.803Z,98424.73
2019-01-29T12:38:16.596Z,98431.08
2019-01-29T12:40:50.857Z,98434.45
2019-01-29T12:43:24.885Z,98440.52
2019-01-29T12:45:59.421Z,98431.53
2019-01-29T12:48:33.270Z,98435.34
2019-01-29T12:51:13.405Z,98440.53
2019-01-29T12:53:47.647Z,98437.80
2019-01-29T12:56:22.292Z,98427.51
2019-01-29T12:58:54.898Z,98423.58
2019-01-29T13:02:06.261Z,98413.80
2019-01-29T13:04:41.792Z,98410.64
2019-01-29T13:07:16.503Z,98416.14
2019-01-29T13:10:02.753Z,98419.50
2019-01-29T13:12:36.612Z,98431.00
2019-01-29T13:15:11.464Z,98440.56
2019-01-29T13:17:45.155Z,98444.84
2019-01-29T13:20:18.509Z,98437.05
2019-01-29T13:22:55.367Z,98431.79
2019-01-29T13:25:28.473Z,98429.64
2019-01-29T13:28:01.174Z,98439.09
2019-01-29T13:30:39.255Z,98443.14
2019-01-29T13:33:16.492Z,98437.52
2019-01-29T13:35:50.487Z,98446.05
2019-01-29T13:38:26.205Z,98451.00
2019-01-29T13:40:58.505Z,98462.73
2019-01-29T13:43:34.640Z,98465.00
2019-01-29T13:46:08.178Z,98455.47
2019-01-29T13:48:41.744Z,98463.98
2019-01-29T13:51:16.001Z,98458.20
2019-01-29T13:53:49.545Z,98458.09
2019-01-29T13:56:22.574Z,98463.76
2019-01-29T13:58:55.886Z,98469.78
2019-01-29T14:01:30.628Z,98465.55
2019-01-29T14:04:06.168Z,98474.45
2019-01-29T14:06:41.586Z,98479.63
2019-01-29T14:09:14.202Z,98482.48
2019-01-29T14:11:48.510Z,98485.38
2019-01-29T14:14:21.711Z,98485.37
2019-01-29T14:16:54.694Z,98484.61
2019-01-29T14:19:27.580Z,98489.30
2019-01-29T14:22:03.778Z,98492.36
2019-01-29T14:24:39.006Z,98497.09
2019-01-29T14:27:13.887Z,98495.69
2019-01-29T14:29:46.120Z,98492.42
2019-01-29T14:32:21.090Z,98491.34
2019-01-29T14:34:58.813Z,98490.09
2019-01-29T14:37:33.977Z,98491.75
2019-01-29T14:40:20.850Z,98488.02
2019-01-29T14:42:54.417Z,98485.94
2019-01-29T14:45:29.776Z,98492.71
2019-01-29T14:48:03.572Z,98495.19
2019-01-29T14:50:36.636Z,98503.73
2019-01-29T14:53:09.962Z,98501.15
2019-01-29T14:55:42.742Z,98499.91
2019-01-29T14:58:14.896Z,98505.41
2019-01-29T15:00:48.774Z,98502.92
2019-01-29T15:03:22.577Z,98503.67
2019-01-29T15:05:57.435Z,98505.03
2019-01-29T15:08:31.536Z,98512.64
2019-01-29T15:11:04.802Z,98517.19
2019-01-29T15:13:38.973Z,98521.73
2019-01-29T15:16:39.371Z,98529.09
2019-01-29T15:19:16.338Z,98528.30
2019-01-29T15:21:53.148Z,98526.13
2019-01-29T15:24:26.919Z,98524.63
2019-01-29T15:27:05.774Z,98527.73
2019-01-29T15:29:38.138Z,98525.81
2019-01-29T15:32:12.572Z,98531.48
2019-01-29T15:34:46.752Z,98536.58
2019-01-29T15:37:20.107Z,98541.09
2019-01-29T15:39:54.354Z,98541.00
2019-01-29T15:42:28.626Z,98549.64
2019-01-29T15:45:03.563Z,98540.34
2019-01-29T15:47:38.089Z,98542.91
2019-01-29T15:50:13.969Z,98538.69
2019-01-29T15:52:48.684Z,98542.65
2019-01-29T15:55:22.201Z,98549.23
2019-01-29T15:57:56.073Z,98550.12
2019-01-29T16:00:31.631Z,98557.06
2019-01-29T16:03:06.572Z,98564.70
2019-01-29T16:05:41.810Z,98564.43
2019-01-29T16:08:14.754Z,98568.66
2019-01-29T16:10:47.963Z,98571.22
2019-01-29T16:13:21.682Z,98573.11
2019-01-29T16:15:56.120Z,98576.90
2019-01-29T16:18:31.363Z,98579.54
2019-01-29T16:21:05.235Z,98587.86
2019-01-29T16:23:40.325Z,98588.27
2019-01-29T16:26:13.711Z,98588.82
2019-01-29T16:28:47.230Z,98586.17
2019-01-29T16:31:21.123Z,98591.46
2019-01-29T16:33:54.375Z,98591.69
2019-01-29T16:36:28.072Z,98585.48
2019-01-29T16:39:03.016Z,98584.65
2019-01-29T16:41:36.963Z,98580.42
2019-01-29T16:44:10.986Z,98580.15
2019-01-29T16:46:46.528Z,98583.78
2019-01-29T16:49:20.947Z,98585.39
2019-01-29T16:51:56.158Z,98587.59
2019-01-29T16:54:30.654Z,98586.67
2019-01-29T16:57:05.195Z,98584.36
2019-01-29T16:59:39.434Z,98586.78
2019-01-29T17:02:14.028Z,98583.08
2019-01-29T17:04:49.136Z,98581.05
2019-01-29T17:07:23.437Z,98585.30
2019-01-29T17:09:58.926Z,98588.88
2019-01-29T17:12:32.785Z,98587.89
2019-01-29T17:15:08.614Z,98589.27
2019-01-29T17:17:43.317Z,98590.66
2019-01-29T17:20:21.302Z,98595.77
2019-01-29T17:22:57.028Z,98596.53
2019-01-29T17:25:32.482Z,98597.86
2019-01-29T17:28:07.706Z,98593.98
2019-01-29T17:30:45.298Z,98594.78
2019-01-29T17:33:21.955Z,98595.76
2019-01-29T17:35:57.186Z,98598.83
2019-01-29T17:38:31.140Z,98596.58
2019-01-29T17:41:05.552Z,98588.27
2019-01-29T17:43:40.347Z,98592.00
2019-01-29T17:46:15.736Z,98590.75
2019-01-29T17:48:49.878Z,98592.89
2019-01-29T17:51:24.703Z,98590.59
2019-01-29T17:53:59.752Z,98593.66
2019-01-29T17:56:34.029Z,98587.02
2019-01-29T17:59:08.289Z,98590.16
2019-01-29T18:01:43.264Z,98587.23
2019-01-29T18:04:18.063Z,98591.03
2019-01-29T18:06:53.327Z,98591.48
2019-01-29T18:09:27.601Z,98590.94
2019-01-29T18:12:01.005Z,98594.14
2019-01-29T18:14:33.918Z,98591.51
2019-01-29T18:17:07.689Z,98592.20
2019-01-29T18:19:40.464Z,98604.03
2019-01-29T18:22:13.314Z,98608.88
2019-01-29T18:24:45.830Z,98605.27
2019-01-29T18:27:19.679Z,98610.58
2019-01-29T18:29:53.130Z,98604.64
2019-01-29T18:32:26.571Z,98609.85
2019-01-29T18:34:58.891Z,98604.31
2019-01-29T18:37:33.108Z,98606.23
2019-01-29T18:40:07.553Z,98607.15
2019-01-29T18:42:40.835Z,98608.59
2019-01-29T18:45:14.323Z,98612.22
2019-01-29T18:47:48.075Z,98607.77
2019-01-29T18:50:21.732Z,98613.92
2019-01-29T18:52:56.162Z,98617.53
2019-01-29T18:55:31.129Z,98609.91
2019-01-29T18:58:11.650Z,98612.48
2019-01-29T19:00:43.085Z,98610.16
2019-01-29T19:03:18.153Z,98607.55
2019-01-29T19:05:53.457Z,98614.13
2019-01-29T19:08:27.879Z,98610.05
2019-01-29T19:11:02.989Z,98612.23
2019-01-29T19:13:38.737Z,98606.91
2019-01-29T19:16:12.619Z,98605.91
2019-01-29T19:18:47.410Z,98600.98
2019-01-29T19:21:22.548Z,98600.73
2019-01-29T19:23:58.838Z,98598.87
2019-01-29T19:26:32.875Z,98598.87
2019-01-29T19:29:07.779Z,98588.55
2019-01-29T19:31:42.998Z,98591.83
2019-01-29T19:34:17.807Z,98588.25
2019-01-29T19:36:52.628Z,98587.88
2019-01-29T19:39:27.296Z,98591.81
2019-01-29T19:42:01.724Z,98588.69
2019-01-29T19:44:36.710Z,98586.50
2019-01-29T19:47:12.224Z,98587.91
2019-01-29T19:49:46.048Z,98589.11
2019-01-29T19:52:20.983Z,98582.81
2019-01-29T19:54:54.219Z,98587.03
2019-01-29T19:57:28.671Z,98586.20
2019-01-29T20:00:02.140Z,98590.33
2019-01-29T20:02:36.622Z,98591.55
2019-01-29T20:05:10.699Z,98592.03
2019-01-29T20:07:44.308Z,98596.13
2019-01-29T20:10:19.443Z,98598.27
2019-01-29T20:12:53.030Z,98600.13
2019-01-29T20:15:27.267Z,98601.68
2019-01-29T20:18:01.028Z,98605.67
2019-01-29T20:20:38.554Z,98611.09
2019-01-29T20:23:13.295Z,98613.08
2019-01-29T20:25:47.270Z,98621.40
2019-01-29T20:28:20.820Z,98618.61
2019-01-29T20:30:55.421Z,98619.64
2019-01-29T20:33:31.694Z,98621.33
2019-01-29T20:36:06.038Z,98620.87
2019-01-29T20:38:40.107Z,98624.45
2019-01-29T20:41:14.581Z,98620.83
2019-01-29T20:43:48.904Z,98620.35
2019-01-29T20:46:23.861Z,98620.81
2019-01-29T20:49:18.893Z,98619.56
2019-01-29T20:51:53.253Z,98619.66
2019-01-29T20:54:28.411Z,98617.52
2019-01-29T20:57:03.432Z,98612.25
2019-01-29T20:59:39.493Z,98616.72
2019-01-29T21:02:13.822Z,98615.17
2019-01-29T21:04:48.132Z,98616.50
2019-01-29T21:07:22.661Z,98614.34
2019-01-29T21:09:58.400Z,98614.33
2019-01-29T21:12:33.067Z,98612.59
2019-01-29T21:15:09.082Z,98613.64
2019-01-29T21:17:44.233Z,98612.50
2019-01-29T21:20:22.629Z,98609.00
2019-01-29T21:22:56.687Z,98612.95
2019-01-29T21:25:31.885Z,98607.53
2019-01-29T21:28:06.832Z,98607.28
2019-01-29T21:30:44.180Z,98605.84
2019-01-29T21:33:18.638Z,98598.79
2019-01-29T21:35:53.015Z,98603.28
2019-01-29T21:38:27.325Z,98599.20
2019-01-29T21:41:02.465Z,98598.44
2019-01-29T21:43:39.274Z,98595.53
2019-01-29T21:46:13.305Z,98602.41
2019-01-29T21:48:47.911Z,98602.88
2019-01-29T21:51:22.619Z,98605.56
2019-01-29T21:53:58.913Z,98607.05
2019-01-29T21:56:34.138Z,98608.17
2019-01-29T21:59:13.311Z,98609.11
2019-01-29T22:01:46.589Z,98604.63
2019-01-29T22:04:21.638Z,98607.97
2019-01-29T22:06:56.654Z,98605.80
2019-01-29T22:09:31.442Z,98606.23
2019-01-29T22:12:07.547Z,98602.88
2019-01-29T22:14:42.879Z,98604.91
2019-01-29T22:17:18.356Z,98598.55
2019-01-29T22:19:52.765Z,98599.06
2019-01-29T22:22:27.587Z,98592.73
2019-01-29T22:25:01.529Z,98594.11
2019-01-29T22:27:35.860Z,98588.14
2019-01-29T22:30:16.537Z,98585.88
2019-01-29T22:32:50.336Z,98583.95
2019-01-29T22:35:24.555Z,98592.25
2019-01-29T22:37:59.636Z,98596.37
2019-01-29T22:40:34.820Z,98592.73
2019-01-29T22:43:11.277Z,98587.23
2019-01-29T22:45:46.178Z,98587.97
2019-01-29T22:48:21.924Z,98584.72
2019-01-29T22:50:56.748Z,98577.98
2019-01-29T22:53:33.882Z,98576.33
2019-01-29T22:56:08.257Z,98581.20
2019-01-29T22:58:44.120Z,98567.15
2019-01-29T23:01:45.557Z,98571.71
2019-01-29T23:04:32.112Z,98570.12
2019-01-29T23:07:23.475Z,98560.07
2019-01-29T23:09:58.616Z,98554.72
2019-01-29T23:12:34.094Z,98551.33
2019-01-29T23:15:11.407Z,98553.64
2019-01-29T23:17:47.316Z,98547.27
2019-01-29T23:20:23.399Z,98547.09
2019-01-29T23:22:57.538Z,98543.63
2019-01-29T23:25:32.104Z,98540.70
2019-01-29T23:28:06.854Z,98535.81
2019-01-29T23:30:41.502Z,98537.42
2019-01-29T23:33:18.391Z,98538.84
2019-01-29T23:35:53.287Z,98541.14
2019-01-29T23:38:28.322Z,98536.13
2019-01-29T23:41:03.372Z,98530.80
2019-01-29T23:43:38.595Z,98530.84
2019-01-29T23:46:13.512Z,98524.86
2019-01-29T23:48:47.961Z,98523.53
2019-01-29T23:51:23.474Z,98523.49
2019-01-29T23:53:58.978Z,98524.97
2019-01-29T23:56:34.876Z,98525.28
2019-01-29T23:59:10.244Z,98522.09
